Time;durP1;ratioP1;P1;durP2;ratioP2;P2;SDS_P1;SDS_P2;PMS_P1;PMS_P2;Temp;Humidity;BMP_temperature;BMP_pressure;BME280_temperature;BME280_humidity;BME280_pressure;Samples;Min_cycle;Max_cycle;Signal;HPM_P1;HPM_P2
2022/05/21 00:00:45;;;;;;;26.30;5.68;;;20.00;99.90;;;;;;5062532;28;20499;-72
2022/05/21 00:03:12;;;;;;;0.00;0.00;;;20.10;99.90;;;;;;5058886;28;20041;-73
2022/05/21 00:05:39;;;;;;;0.00;0.00;;;20.20;99.90;;;;;;5073626;28;20020;-72
2022/05/21 00:08:10;;;;;;;0.00;0.00;;;20.30;99.90;;;;;;5068048;28;20029;-73
2022/05/21 00:10:38;;;;;;;0.00;0.00;;;20.00;99.90;;;;;;5080436;28;20020;-72
2022/05/21 00:13:05;;;;;;;0.00;0.00;;;20.00;99.90;;;;;;5073020;28;20024;-72
2022/05/21 00:15:35;;;;;;;0.00;0.00;;;19.90;99.90;;;;;;5073999;28;20035;-73
2022/05/21 00:18:02;;;;;;;0.00;0.00;;;19.80;99.90;;;;;;5071500;28;20523;-73
2022/05/21 00:23:25;;;;;;;0.00;0.00;;;19.90;99.90;;;;;;5068938;28;20026;-73
2022/05/21 00:26:00;;;;;;;0.00;0.00;;;20.00;99.90;;;;;;5069643;28;20029;-73
2022/05/21 00:28:27;;;;;;;0.22;0.22;;;20.10;99.90;;;;;;5066171;28;20072;-73
2022/05/21 00:30:54;;;;;;;0.10;0.10;;;20.20;99.90;;;;;;5071119;28;20115;-72
2022/05/21 00:33:20;;;;;;;0.00;0.00;;;20.00;99.90;;;;;;5072046;28;20024;-73
2022/05/21 00:35:50;;;;;;;0.00;0.00;;;20.20;99.90;;;;;;5067614;28;20029;-73
2022/05/21 00:38:17;;;;;;;0.00;0.00;;;20.30;99.90;;;;;;5063160;28;20029;-73
2022/05/21 00:40:44;;;;;;;0.17;0.17;;;20.20;99.90;;;;;;5068467;28;20023;-73
2022/05/21 00:43:37;;;;;;;0.00;0.00;;;20.40;99.90;;;;;;5065865;28;20493;-73
2022/05/21 00:46:06;;;;;;;0.00;0.00;;;20.40;99.90;;;;;;5065262;28;20075;-73
2022/05/21 00:48:34;;;;;;;0.00;0.00;;;20.40;99.90;;;;;;5063485;28;20547;-73
2022/05/21 00:51:00;;;;;;;0.00;0.00;;;20.50;99.90;;;;;;5065685;28;20029;-72
2022/05/21 00:53:28;;;;;;;0.00;0.00;;;20.10;99.90;;;;;;5063302;28;20490;-73
2022/05/21 00:55:55;;;;;;;0.00;0.00;;;19.80;99.90;;;;;;5067119;28;20028;-73
2022/05/21 01:01:11;;;;;;;0.77;0.77;;;20.00;99.90;;;;;;5076687;28;20481;-73
2022/05/21 01:03:37;;;;;;;0.35;0.35;;;19.90;99.90;;;;;;5064707;28;20135;-73
2022/05/21 01:06:04;;;;;;;0.00;0.00;;;19.60;99.90;;;;;;5067089;28;20016;-74
2022/05/21 01:08:31;;;;;;;0.00;0.00;;;19.60;99.90;;;;;;5068736;28;20112;-75
2022/05/21 01:11:03;;;;;;;0.60;0.60;;;19.50;99.90;;;;;;5060737;28;20479;-74
2022/05/21 01:13:33;;;;;;;0.80;0.80;;;19.70;99.90;;;;;;5061455;28;20421;-73
2022/05/21 01:15:59;;;;;;;1.55;1.55;;;19.50;99.90;;;;;;5062663;28;20048;-74
2022/05/21 01:18:26;;;;;;;0.00;0.00;;;19.40;99.90;;;;;;5073454;28;20727;-73
2022/05/21 01:21:00;;;;;;;0.00;0.00;;;19.30;99.90;;;;;;5065374;28;20021;-73
2022/05/21 01:23:27;;;;;;;0.00;0.00;;;19.20;99.90;;;;;;5067219;28;20435;-73
2022/05/21 01:25:56;;;;;;;0.00;0.00;;;19.10;99.90;;;;;;5059992;28;20062;-73
2022/05/21 01:28:24;;;;;;;0.05;0.05;;;19.50;99.90;;;;;;5058578;28;20104;-71
2022/05/21 01:30:55;;;;;;;1.00;1.00;;;19.20;99.90;;;;;;5061124;28;20055;-73
2022/05/21 01:33:24;;;;;;;0.00;0.00;;;19.10;99.90;;;;;;5063171;28;20036;-72
2022/05/21 01:35:50;;;;;;;0.15;0.15;;;19.00;99.90;;;;;;5067425;28;20024;-73
2022/05/21 01:38:20;;;;;;;0.30;0.28;;;19.10;99.90;;;;;;5067427;28;20025;-72
2022/05/21 01:40:47;;;;;;;0.00;0.00;;;19.30;99.90;;;;;;5066738;28;20021;-72
2022/05/21 01:45:59;;;;;;;0.10;0.10;;;19.40;99.90;;;;;;5064611;28;20062;-74
2022/05/21 01:48:27;;;;;;;0.00;0.00;;;19.60;99.90;;;;;;5066063;28;20104;-74
2022/05/21 01:50:54;;;;;;;0.00;0.00;;;19.60;99.90;;;;;;5064240;28;20021;-74
2022/05/21 01:53:22;;;;;;;4.63;4.30;;;19.60;99.90;;;;;;5064449;28;20028;-74
2022/05/21 01:55:48;;;;;;;0.05;0.05;;;19.60;99.90;;;;;;5064644;28;20032;-73
2022/05/21 01:58:16;;;;;;;0.00;0.00;;;19.70;99.90;;;;;;5064947;28;20078;-73
2022/05/21 02:00:43;;;;;;;0.00;0.00;;;19.40;99.90;;;;;;5059279;28;20028;-73
2022/05/21 02:03:11;;;;;;;0.00;0.00;;;19.60;99.90;;;;;;5061785;28;20390;-73
2022/05/21 02:05:38;;;;;;;2.50;2.45;;;19.90;99.90;;;;;;5063461;28;20543;-73
2022/05/21 02:08:04;;;;;;;0.28;0.28;;;19.80;99.90;;;;;;5061364;28;20177;-73
2022/05/21 02:10:31;;;;;;;0.00;0.00;;;19.90;99.90;;;;;;5069610;28;20491;-73
2022/05/21 02:12:58;;;;;;;0.00;0.00;;;20.10;99.90;;;;;;5069734;28;20138;-73
2022/05/21 02:15:24;;;;;;;0.10;0.10;;;20.30;99.90;;;;;;5071741;28;20036;-73
2022/05/21 02:17:50;;;;;;;0.73;0.73;;;20.50;99.90;;;;;;5068967;28;20170;-73
2022/05/21 02:20:16;;;;;;;0.00;0.00;;;20.60;99.90;;;;;;5072326;28;20422;-73
2022/05/21 02:22:42;;;;;;;0.00;0.00;;;20.60;99.90;;;;;;5071829;28;20020;-74
2022/05/21 02:25:08;;;;;;;0.20;0.20;;;20.00;99.90;;;;;;5082220;28;20033;-73
2022/05/21 02:27:35;;;;;;;2.08;1.85;;;20.00;99.90;;;;;;5071544;28;20462;-74
2022/05/21 02:30:02;;;;;;;1.42;1.33;;;20.20;99.90;;;;;;5072459;28;20367;-74
2022/05/21 02:32:28;;;;;;;0.00;0.00;;;20.40;99.90;;;;;;5066852;28;20041;-73
2022/05/21 02:34:54;;;;;;;0.00;0.00;;;20.60;99.90;;;;;;5053727;28;20624;-74
2022/05/21 02:40:06;;;;;;;0.00;0.00;;;21.00;99.90;;;;;;5064429;28;20039;-75
2022/05/21 02:42:45;;;;;;;0.00;0.00;;;21.10;99.90;;;;;;5065964;28;20044;-75
2022/05/21 02:45:20;;;;;;;0.00;0.00;;;21.30;99.90;;;;;;5055978;28;20021;-74
2022/05/21 02:47:47;;;;;;;0.00;0.00;;;21.30;99.90;;;;;;5070147;28;20048;-72
2022/05/21 02:50:16;;;;;;;0.00;0.00;;;21.40;99.90;;;;;;5058779;28;20468;-73
2022/05/21 02:52:42;;;;;;;0.00;0.00;;;21.60;99.90;;;;;;5053800;28;20279;-72
2022/05/21 02:55:11;;;;;;;0.00;0.00;;;21.70;99.90;;;;;;5067359;28;20031;-72
2022/05/21 02:57:37;;;;;;;0.00;0.00;;;21.60;99.90;;;;;;5072451;28;20036;-72
2022/05/21 03:00:16;;;;;;;0.00;0.00;;;21.80;99.90;;;;;;5060329;28;20017;-73
2022/05/21 03:02:42;;;;;;;0.00;0.00;;;21.80;99.90;;;;;;5052747;28;20107;-72
2022/05/21 03:05:10;;;;;;;0.00;0.00;;;21.70;99.90;;;;;;5062005;28;20070;-73
2022/05/21 03:07:41;;;;;;;2.83;0.85;;;21.70;99.90;;;;;;5065303;28;20115;-72
2022/05/21 03:10:21;;;;;;;0.00;0.00;;;22.00;99.90;;;;;;5060857;28;20032;-73
2022/05/21 03:12:58;;;;;;;0.00;0.00;;;21.90;99.90;;;;;;5055055;28;20095;-72
2022/05/21 03:15:32;;;;;;;0.00;0.00;;;22.10;99.90;;;;;;5069026;28;20102;-72
2022/05/21 03:18:01;;;;;;;0.00;0.00;;;21.90;99.90;;;;;;5062008;28;20091;-73
2022/05/21 03:20:27;;;;;;;0.10;0.10;;;22.10;99.90;;;;;;5067145;28;20062;-73
2022/05/21 03:22:53;;;;;;;11.50;3.40;;;22.40;99.90;;;;;;5059084;28;20368;-73
2022/05/21 03:25:20;;;;;;;0.00;0.00;;;22.50;99.90;;;;;;5060526;28;20096;-73
2022/05/21 03:27:46;;;;;;;1.20;1.20;;;22.30;99.90;;;;;;5067209;28;20033;-74
2022/05/21 03:30:16;;;;;;;6.18;5.78;;;22.40;99.90;;;;;;5066292;28;20024;-73
2022/05/21 03:32:43;;;;;;;0.00;0.00;;;22.50;99.90;;;;;;5071733;28;20028;-74
2022/05/21 03:35:11;;;;;;;0.00;0.00;;;22.60;99.90;;;;;;5071468;28;20024;-72
2022/05/21 03:37:37;;;;;;;0.00;0.00;;;22.90;99.90;;;;;;5070805;28;20029;-73
2022/05/21 03:40:06;;;;;;;0.52;0.52;;;23.10;99.90;;;;;;5063608;28;20020;-73
2022/05/21 03:42:32;;;;;;;0.00;0.00;;;23.20;99.90;;;;;;5061712;28;20032;-73
2022/05/21 03:44:58;;;;;;;0.00;0.00;;;23.20;99.90;;;;;;5063354;28;20391;-73
2022/05/21 03:47:24;;;;;;;0.00;0.00;;;23.50;99.90;;;;;;5079859;28;20165;-73
2022/05/21 03:49:50;;;;;;;0.00;0.00;;;23.30;99.90;;;;;;5063332;28;20115;-73
2022/05/21 03:52:16;;;;;;;13.63;12.60;;;23.50;99.90;;;;;;5061459;28;20612;-73
2022/05/21 03:54:42;;;;;;;1.98;1.88;;;23.60;99.90;;;;;;5061402;28;20056;-73
2022/05/21 03:57:10;;;;;;;7.15;6.93;;;23.70;99.90;;;;;;5060150;28;20117;-73
2022/05/21 03:59:37;;;;;;;1.45;1.45;;;23.90;97.80;;;;;;5047248;28;20028;-73
2022/05/21 04:02:05;;;;;;;5.75;2.05;;;24.00;97.20;;;;;;5062762;28;20031;-73
2022/05/21 04:04:31;;;;;;;1.85;1.75;;;24.00;96.80;;;;;;5057342;28;20021;-75
2022/05/21 04:06:57;;;;;;;0.57;0.57;;;24.00;96.50;;;;;;5059358;28;20027;-74
2022/05/21 04:09:27;;;;;;;0.00;0.00;;;24.10;97.20;;;;;;5060994;28;20060;-72
2022/05/21 04:11:55;;;;;;;0.00;0.00;;;24.20;96.50;;;;;;5065839;28;20413;-73
2022/05/21 04:14:29;;;;;;;0.00;0.00;;;24.40;95.90;;;;;;5067661;28;20062;-73
2022/05/21 04:16:57;;;;;;;0.00;0.00;;;24.50;94.50;;;;;;5061285;28;20036;-73
2022/05/21 04:19:25;;;;;;;0.00;0.00;;;24.40;93.50;;;;;;5058749;28;20016;-73
2022/05/21 04:21:51;;;;;;;0.20;0.20;;;24.40;93.30;;;;;;5064214;28;20021;-72
2022/05/21 04:24:18;;;;;;;0.10;0.10;;;24.60;92.80;;;;;;5064989;28;20424;-72
2022/05/21 04:26:45;;;;;;;0.00;0.00;;;24.60;91.90;;;;;;5060192;28;20029;-73
2022/05/21 04:29:12;;;;;;;0.17;0.17;;;24.90;90.60;;;;;;5063643;28;20040;-73
2022/05/21 04:31:38;;;;;;;0.00;0.00;;;24.90;85.60;;;;;;5063485;28;20096;-74
2022/05/21 04:34:05;;;;;;;0.25;0.25;;;24.80;88.60;;;;;;5063921;28;20024;-73
2022/05/21 04:36:31;;;;;;;0.00;0.00;;;25.00;86.00;;;;;;5064723;28;20231;-75
2022/05/21 04:38:58;;;;;;;0.00;0.00;;;25.00;83.60;;;;;;5060839;28;20510;-74
2022/05/21 04:41:25;;;;;;;0.20;0.20;;;25.10;78.80;;;;;;5061831;28;20021;-74
2022/05/21 04:43:52;;;;;;;0.65;0.65;;;25.00;76.10;;;;;;5063784;28;20021;-74
2022/05/21 04:46:19;;;;;;;0.85;0.85;;;24.60;79.20;;;;;;5056046;28;20028;-74
2022/05/21 04:48:46;;;;;;;0.55;0.55;;;24.40;79.60;;;;;;5062975;28;20040;-75
2022/05/21 04:51:13;;;;;;;0.10;0.10;;;24.70;79.30;;;;;;5062607;28;20031;-74
2022/05/21 04:53:40;;;;;;;0.00;0.00;;;24.40;78.50;;;;;;5058146;28;20032;-74
2022/05/21 04:56:07;;;;;;;0.45;0.45;;;24.30;79.90;;;;;;5061514;28;20032;-74
2022/05/21 04:58:33;;;;;;;0.30;0.30;;;24.50;80.70;;;;;;5063093;28;20029;-75
2022/05/21 05:01:01;;;;;;;1.08;1.08;;;24.90;78.70;;;;;;5060514;28;20538;-74
2022/05/21 05:03:27;;;;;;;6.53;6.22;;;24.60;79.10;;;;;;5065136;28;20032;-74
2022/05/21 05:05:53;;;;;;;0.00;0.00;;;24.50;80.30;;;;;;5056629;28;20035;-74
2022/05/21 05:08:21;;;;;;;0.00;0.00;;;24.70;80.30;;;;;;5064699;28;20036;-74
2022/05/21 05:10:48;;;;;;;0.00;0.00;;;25.00;81.00;;;;;;5070801;28;20044;-74
2022/05/21 05:13:15;;;;;;;3.65;1.65;;;25.10;81.20;;;;;;5063799;28;20056;-73
2022/05/21 05:15:44;;;;;;;0.28;0.28;;;25.30;81.30;;;;;;5062561;28;20057;-74
2022/05/21 05:18:16;;;;;;;0.00;0.00;;;24.30;89.90;;;;;;5064916;28;20032;-74
2022/05/21 05:20:43;;;;;;;0.00;0.00;;;23.30;95.80;;;;;;5060555;28;20058;-74
2022/05/21 05:23:09;;;;;;;0.10;0.10;;;23.80;97.60;;;;;;5062449;28;20352;-75
2022/05/21 05:25:36;;;;;;;0.00;0.00;;;23.80;97.70;;;;;;5061816;28;20040;-75
2022/05/21 05:28:02;;;;;;;0.00;0.00;;;24.30;96.60;;;;;;5061844;28;20021;-74
2022/05/21 05:30:28;;;;;;;2.03;1.27;;;24.20;97.60;;;;;;5059599;28;20476;-75
2022/05/21 05:32:54;;;;;;;0.00;0.00;;;24.30;99.90;;;;;;5060617;28;20035;-75
2022/05/21 05:35:22;;;;;;;0.00;0.00;;;24.20;99.90;;;;;;5059555;28;20036;-75
2022/05/21 05:37:48;;;;;;;0.00;0.00;;;24.50;99.90;;;;;;5061594;28;20474;-75
2022/05/21 05:40:18;;;;;;;0.52;0.52;;;24.80;98.70;;;;;;5058332;28;20037;-74
2022/05/21 05:42:44;;;;;;;0.00;0.00;;;23.60;99.90;;;;;;5060934;28;20021;-74
2022/05/21 05:45:14;;;;;;;7.28;6.88;;;23.80;99.90;;;;;;5059847;28;20029;-73
2022/05/21 05:47:40;;;;;;;0.00;0.00;;;24.30;99.90;;;;;;5065647;28;20089;-73
2022/05/21 05:50:07;;;;;;;0.47;0.47;;;24.70;99.90;;;;;;5064812;28;20033;-73
2022/05/21 05:52:33;;;;;;;0.10;0.10;;;24.90;99.90;;;;;;5067027;28;20032;-74
2022/05/21 05:54:59;;;;;;;2.17;0.75;;;24.90;99.90;;;;;;5068630;28;20024;-74
2022/05/21 05:57:25;;;;;;;0.50;0.50;;;24.40;99.90;;;;;;5065156;28;20112;-74
2022/05/21 05:59:51;;;;;;;0.00;0.00;;;24.10;99.90;;;;;;5067376;28;20056;-74
2022/05/21 06:05:07;;;;;;;0.38;0.32;;;24.60;99.90;;;;;;5063903;28;20028;-73
2022/05/21 06:07:39;;;;;;;0.00;0.00;;;25.10;99.90;;;;;;5058328;28;20071;-73
2022/05/21 06:10:06;;;;;;;1.13;1.10;;;25.60;96.10;;;;;;5056508;28;20132;-74
2022/05/21 06:12:33;;;;;;;0.00;0.00;;;25.80;91.60;;;;;;5059657;28;20087;-74
2022/05/21 06:14:59;;;;;;;0.00;0.00;;;25.80;89.10;;;;;;5059137;28;20033;-76
2022/05/21 06:17:26;;;;;;;0.00;0.00;;;25.80;89.10;;;;;;5060769;28;20417;-72
2022/05/21 06:19:53;;;;;;;9.13;2.53;;;25.70;89.10;;;;;;5061936;28;20032;-73
2022/05/21 06:22:19;;;;;;;0.00;0.00;;;25.80;84.90;;;;;;5063537;28;20115;-73
2022/05/21 06:24:45;;;;;;;0.65;0.65;;;25.60;87.60;;;;;;5058853;28;20054;-74
2022/05/21 06:27:11;;;;;;;0.10;0.10;;;26.00;84.30;;;;;;5059830;28;20027;-73
2022/05/21 06:29:37;;;;;;;2.72;1.85;;;26.10;84.20;;;;;;5066521;28;20143;-73
2022/05/21 06:32:05;;;;;;;0.00;0.00;;;25.70;84.70;;;;;;5074153;28;20016;-73
2022/05/21 06:34:32;;;;;;;1.30;1.10;;;25.50;84.50;;;;;;5069711;28;20052;-73
2022/05/21 06:37:07;;;;;;;2.95;2.85;;;25.60;83.70;;;;;;5060645;28;20532;-73
2022/05/21 06:39:34;;;;;;;0.00;0.00;;;26.00;81.20;;;;;;5061431;28;20728;-73
2022/05/21 06:42:01;;;;;;;12.85;2.20;;;26.00;80.20;;;;;;5058367;28;20060;-73
2022/05/21 06:44:27;;;;;;;0.00;0.00;;;25.40;82.80;;;;;;5062113;28;20020;-73
2022/05/21 06:46:55;;;;;;;0.00;0.00;;;25.80;79.70;;;;;;5064495;28;20032;-74
2022/05/21 06:49:21;;;;;;;0.52;0.52;;;26.30;77.90;;;;;;5059913;28;20033;-75
2022/05/21 06:51:52;;;;;;;0.20;0.20;;;26.90;74.60;;;;;;5056621;28;20035;-74
2022/05/21 06:54:18;;;;;;;0.35;0.35;;;26.50;72.50;;;;;;5062556;28;20032;-75
2022/05/21 06:56:44;;;;;;;0.20;0.20;;;26.00;75.30;;;;;;5058310;28;20037;-75
2022/05/21 06:59:10;;;;;;;0.32;0.32;;;26.40;74.90;;;;;;5064282;28;20036;-72
2022/05/21 07:01:36;;;;;;;0.00;0.00;;;26.10;76.50;;;;;;5060253;28;20085;-74
2022/05/21 07:04:03;;;;;;;0.47;0.30;;;26.60;74.80;;;;;;5064703;28;20322;-75
2022/05/21 07:09:14;;;;;;;0.00;0.00;;;26.50;71.00;;;;;;5060429;28;20047;-73
2022/05/21 07:11:40;;;;;;;0.28;0.28;;;26.60;70.50;;;;;;5063560;28;20059;-73
2022/05/21 07:14:06;;;;;;;0.95;0.95;;;26.00;71.70;;;;;;5065521;28;20027;-72
2022/05/21 07:16:32;;;;;;;0.00;0.00;;;25.60;73.20;;;;;;5062972;28;20028;-73
2022/05/21 07:18:58;;;;;;;0.00;0.00;;;25.70;76.80;;;;;;5064235;28;20494;-73
2022/05/21 07:21:25;;;;;;;0.00;0.00;;;26.10;75.70;;;;;;5061554;28;20060;-74
2022/05/21 07:23:51;;;;;;;0.00;0.00;;;26.20;75.90;;;;;;5066645;28;20088;-73
2022/05/21 07:26:18;;;;;;;0.00;0.00;;;26.90;72.60;;;;;;5062233;28;21072;-73
2022/05/21 07:28:44;;;;;;;0.90;0.90;;;26.70;72.80;;;;;;5076394;28;20029;-73
2022/05/21 07:31:10;;;;;;;15.80;3.92;;;26.90;72.00;;;;;;5056953;28;20036;-73
2022/05/21 07:33:36;;;;;;;0.00;0.00;;;26.60;73.80;;;;;;5057873;28;21198;-74
2022/05/21 07:36:03;;;;;;;0.00;0.00;;;26.90;72.60;;;;;;5061579;28;21013;-74
2022/05/21 07:38:29;;;;;;;0.00;0.00;;;27.10;72.70;;;;;;5057584;28;20033;-74
2022/05/21 07:40:55;;;;;;;1.00;1.00;;;27.20;70.80;;;;;;5066296;28;20059;-74
2022/05/21 07:43:30;;;;;;;0.00;0.00;;;27.30;69.50;;;;;;5065085;28;20033;-73
2022/05/21 07:45:58;;;;;;;0.00;0.00;;;27.50;64.60;;;;;;5059012;28;20063;-73
2022/05/21 07:48:24;;;;;;;0.00;0.00;;;27.10;64.80;;;;;;5058010;28;20058;-73
2022/05/21 07:50:56;;;;;;;1.58;1.55;;;27.20;62.70;;;;;;5057543;28;20201;-73
2022/05/21 07:53:25;;;;;;;0.63;0.38;;;27.00;62.50;;;;;;5063587;28;20056;-74
2022/05/21 07:55:53;;;;;;;0.00;0.00;;;27.20;62.70;;;;;;5073717;28;20042;-74
2022/05/21 07:58:20;;;;;;;0.00;0.00;;;27.10;62.70;;;;;;5066646;28;20071;-74
2022/05/21 08:00:47;;;;;;;0.88;0.57;;;27.10;63.40;;;;;;5060411;28;20017;-74
2022/05/21 08:03:14;;;;;;;0.20;0.20;;;27.30;61.70;;;;;;5061918;28;20029;-73
2022/05/21 08:05:41;;;;;;;0.00;0.00;;;27.60;60.50;;;;;;5061815;28;20071;-73
2022/05/21 08:08:09;;;;;;;0.00;0.00;;;27.90;60.40;;;;;;5059494;28;20063;-72
2022/05/21 08:10:37;;;;;;;0.00;0.00;;;27.90;62.30;;;;;;5062432;28;20028;-73
2022/05/21 08:13:03;;;;;;;0.00;0.00;;;28.20;58.80;;;;;;5064667;28;20120;-73
2022/05/21 08:15:30;;;;;;;0.35;0.20;;;28.50;57.70;;;;;;5063087;28;20028;-74
2022/05/21 08:17:56;;;;;;;63.80;6.82;;;28.60;57.90;;;;;;5060271;28;20520;-73
2022/05/21 08:20:22;;;;;;;1.88;0.22;;;27.80;57.90;;;;;;5063255;28;20024;-73
2022/05/21 08:28:18;;;;;;;0.00;0.00;;;28.20;57.90;;;;;;5063095;28;20058;-74
2022/05/21 08:30:46;;;;;;;3.15;3.05;;;28.40;57.20;;;;;;5058539;28;20037;-74
2022/05/21 08:33:14;;;;;;;0.00;0.00;;;28.20;58.60;;;;;;5062508;28;21136;-74
2022/05/21 08:35:40;;;;;;;0.10;0.10;;;28.10;58.90;;;;;;5060525;28;20055;-74
2022/05/21 08:38:09;;;;;;;0.00;0.00;;;28.40;57.00;;;;;;5062702;28;20445;-74
2022/05/21 08:40:51;;;;;;;0.00;0.00;;;28.20;59.80;;;;;;5063529;28;20099;-74
2022/05/21 08:43:30;;;;;;;0.52;0.52;;;27.60;60.30;;;;;;5059822;28;20348;-75
2022/05/21 08:46:03;;;;;;;0.22;0.20;;;27.80;58.80;;;;;;5063827;28;20067;-74
2022/05/21 08:48:32;;;;;;;0.00;0.00;;;28.30;55.30;;;;;;5062344;28;20150;-74
2022/05/21 08:51:02;;;;;;;0.00;0.00;;;28.40;55.80;;;;;;5062302;28;20036;-74
2022/05/21 08:53:30;;;;;;;0.00;0.00;;;28.30;54.00;;;;;;5059667;28;20112;-74
2022/05/21 08:55:59;;;;;;;0.32;0.32;;;28.40;53.80;;;;;;5063530;28;20031;-74
2022/05/21 08:58:46;;;;;;;0.00;0.00;;;28.50;51.70;;;;;;5058398;28;20031;-74
2022/05/21 09:01:15;;;;;;;0.57;0.57;;;28.00;52.70;;;;;;5057021;28;20020;-73
2022/05/21 09:03:42;;;;;;;0.10;0.10;;;27.30;54.60;;;;;;5061654;28;20507;-74
2022/05/21 09:06:17;;;;;;;0.00;0.00;;;27.40;54.70;;;;;;5062912;28;20021;-74
2022/05/21 09:09:02;;;;;;;0.00;0.00;;;27.70;54.10;;;;;;5059411;28;20032;-73
2022/05/21 09:11:37;;;;;;;0.00;0.00;;;27.30;55.60;;;;;;5057336;28;20040;-74
2022/05/21 09:14:13;;;;;;;0.05;0.05;;;27.50;55.40;;;;;;5059873;28;20035;-74
2022/05/21 09:16:56;;;;;;;0.00;0.00;;;28.00;56.00;;;;;;5061861;28;20036;-73
2022/05/21 09:19:35;;;;;;;0.00;0.00;;;28.20;57.10;;;;;;5066781;28;20182;-73
2022/05/21 09:22:13;;;;;;;0.00;0.00;;;28.50;56.80;;;;;;5075649;28;20059;-73
2022/05/21 09:24:59;;;;;;;3.60;3.40;;;28.80;55.20;;;;;;5068142;28;20027;-74
2022/05/21 09:27:42;;;;;;;0.38;0.38;;;28.70;55.10;;;;;;5064683;28;20490;-74
2022/05/21 09:30:28;;;;;;;0.00;0.00;;;27.70;56.90;;;;;;5066268;28;20497;-73
2022/05/21 09:33:03;;;;;;;0.30;0.30;;;27.90;57.60;;;;;;5055840;28;20047;-73
2022/05/21 09:35:47;;;;;;;0.25;0.25;;;28.50;57.20;;;;;;5065177;28;20032;-73
2022/05/21 09:38:19;;;;;;;0.47;0.10;;;28.50;57.70;;;;;;5065313;28;20364;-75
2022/05/21 09:40:45;;;;;;;0.10;0.10;;;28.50;56.50;;;;;;5059268;28;20371;-73
2022/05/21 09:46:23;;;;;;;0.10;0.10;;;28.70;55.00;;;;;;5065834;28;20047;-74
2022/05/21 09:48:50;;;;;;;1.98;1.75;;;28.70;54.10;;;;;;5064088;28;20414;-74
2022/05/21 09:51:32;;;;;;;0.63;0.63;;;28.80;53.90;;;;;;5062734;28;20059;-74
2022/05/21 09:54:17;;;;;;;0.00;0.00;;;28.90;54.60;;;;;;5064574;28;20025;-73
2022/05/21 09:56:52;;;;;;;0.22;0.22;;;28.10;55.40;;;;;;5069075;28;20029;-74
2022/05/21 09:59:22;;;;;;;0.00;0.00;;;27.50;55.20;;;;;;5063275;28;20082;-72
2022/05/21 10:01:53;;;;;;;0.00;0.00;;;27.70;54.70;;;;;;5066692;28;20028;-74
2022/05/21 10:04:55;;;;;;;15.02;0.45;;;27.70;55.20;;;;;;5066797;28;20108;-74
2022/05/21 10:12:59;;;;;;;0.30;0.30;;;28.10;55.40;;;;;;5062886;28;20040;-75
2022/05/21 10:15:32;;;;;;;0.00;0.00;;;27.80;55.30;;;;;;5066804;28;20040;-74
2022/05/21 10:18:13;;;;;;;0.00;0.00;;;27.70;55.00;;;;;;5065218;28;20036;-73
2022/05/21 10:20:43;;;;;;;1.25;0.13;;;28.10;54.00;;;;;;5062131;28;20028;-74
2022/05/21 10:23:12;;;;;;;1.75;0.55;;;28.30;54.20;;;;;;5066650;28;20382;-73
2022/05/21 10:25:53;;;;;;;0.00;0.00;;;28.10;54.10;;;;;;5063187;28;20102;-74
2022/05/21 10:29:01;;;;;;;0.15;0.15;;;28.20;54.00;;;;;;5065025;28;20032;-74
2022/05/21 10:31:55;;;;;;;0.00;0.00;;;27.40;55.20;;;;;;5065157;28;20116;-74
2022/05/21 10:34:48;;;;;;;0.00;0.00;;;27.20;55.60;;;;;;5063671;28;21605;-75
2022/05/21 10:37:36;;;;;;;0.00;0.00;;;27.30;55.40;;;;;;5066199;28;20036;-74
2022/05/21 10:40:33;;;;;;;0.00;0.00;;;27.50;56.30;;;;;;5069064;28;20028;-74
2022/05/21 10:43:20;;;;;;;0.75;0.75;;;27.50;55.30;;;;;;5066320;28;20099;-76
2022/05/21 10:45:58;;;;;;;0.00;0.00;;;27.50;55.20;;;;;;5067058;28;20027;-72
2022/05/21 10:48:45;;;;;;;6.63;2.28;;;27.20;56.00;;;;;;5066230;28;20048;-76
2022/05/21 10:51:32;;;;;;;0.38;0.22;;;26.40;59.30;;;;;;5067176;28;20505;-73
2022/05/21 10:54:09;;;;;;;6.03;0.38;;;26.30;60.10;;;;;;5064617;28;20508;-74
2022/05/21 10:56:57;;;;;;;0.22;0.22;;;26.30;59.60;;;;;;5065080;28;20036;-73
2022/05/21 10:59:26;;;;;;;0.10;0.10;;;26.30;59.40;;;;;;5062135;28;20754;-72
2022/05/21 11:01:55;;;;;;;0.00;0.00;;;26.30;59.40;;;;;;5065862;28;20109;-73
2022/05/21 11:04:57;;;;;;;0.00;0.00;;;25.80;59.20;;;;;;5064172;28;20056;-72
2022/05/21 11:07:54;;;;;;;0.00;0.00;;;25.70;59.60;;;;;;5061331;28;20025;-72
2022/05/21 11:10:33;;;;;;;0.20;0.20;;;25.70;60.20;;;;;;5064870;28;20024;-72
2022/05/21 11:13:06;;;;;;;0.00;0.00;;;26.00;60.50;;;;;;5065869;28;20028;-74
2022/05/21 11:15:47;;;;;;;3.50;3.30;;;26.20;60.10;;;;;;5062327;28;20063;-74
2022/05/21 11:18:39;;;;;;;0.70;0.70;;;26.00;60.30;;;;;;5064740;28;20477;-74
2022/05/21 11:21:35;;;;;;;1.85;0.88;;;25.90;60.90;;;;;;5066065;28;20417;-72
2022/05/21 11:24:12;;;;;;;0.10;0.10;;;26.00;61.20;;;;;;5065605;28;20041;-73
2022/05/21 11:26:54;;;;;;;10.30;2.03;;;26.10;61.30;;;;;;5064894;28;20029;-73
2022/05/21 11:29:26;;;;;;;0.00;0.00;;;26.20;61.10;;;;;;5059239;28;20082;-72
2022/05/21 11:37:49;;;;;;;0.00;0.00;;;26.30;60.50;;;;;;5066497;28;20027;-73
2022/05/21 11:40:52;;;;;;;0.00;0.00;;;26.20;60.80;;;;;;5062604;28;20681;-72
2022/05/21 11:43:20;;;;;;;2.00;0.38;;;26.10;61.40;;;;;;5060754;28;20107;-73
2022/05/21 11:46:00;;;;;;;2.55;0.47;;;25.70;62.50;;;;;;5063234;28;20056;-74
2022/05/21 11:48:30;;;;;;;0.00;0.00;;;26.10;62.50;;;;;;5065259;28;20521;-74
2022/05/21 11:51:18;;;;;;;1.27;1.20;;;26.30;62.00;;;;;;5070980;28;20083;-73
2022/05/21 11:53:47;;;;;;;0.45;0.45;;;26.20;62.00;;;;;;5072208;28;20032;-74
2022/05/21 11:56:14;;;;;;;0.00;0.00;;;26.10;61.90;;;;;;5061225;28;20079;-74
2022/05/21 11:58:58;;;;;;;0.00;0.00;;;25.80;63.00;;;;;;5066611;28;20020;-74
2022/05/21 12:01:39;;;;;;;0.00;0.00;;;26.10;63.30;;;;;;5064010;28;20608;-74
2022/05/21 12:04:21;;;;;;;0.00;0.00;;;26.10;63.20;;;;;;5066355;28;20020;-73
2022/05/21 12:06:47;;;;;;;0.00;0.00;;;26.10;63.00;;;;;;5062498;28;20029;-74
2022/05/21 12:09:26;;;;;;;1.10;1.10;;;26.00;63.20;;;;;;5063123;28;20028;-74
2022/05/21 12:12:25;;;;;;;0.00;0.00;;;25.90;63.50;;;;;;5062745;28;20040;-74
2022/05/21 12:14:53;;;;;;;0.00;0.00;;;25.80;62.90;;;;;;5059172;28;20032;-74
2022/05/21 12:17:50;;;;;;;0.00;0.00;;;25.70;65.00;;;;;;5063723;28;20036;-73
2022/05/21 12:20:39;;;;;;;0.00;0.00;;;25.70;63.90;;;;;;5058323;28;20052;-74
2022/05/21 12:23:05;;;;;;;0.00;0.00;;;25.50;63.90;;;;;;5066129;28;20363;-73
2022/05/21 12:25:46;;;;;;;0.00;0.00;;;25.40;63.80;;;;;;5065046;28;20027;-73
2022/05/21 12:28:13;;;;;;;0.00;0.00;;;25.10;64.90;;;;;;5065968;28;20074;-73
2022/05/21 12:30:39;;;;;;;0.00;0.00;;;24.60;67.70;;;;;;5062099;28;20035;-73
2022/05/21 12:33:07;;;;;;;0.00;0.00;;;24.50;68.30;;;;;;5065576;28;20020;-72
2022/05/21 12:36:02;;;;;;;2.65;2.55;;;24.70;67.70;;;;;;5064027;28;20445;-74
2022/05/21 12:38:32;;;;;;;0.00;0.00;;;24.60;67.50;;;;;;5058735;28;20044;-74
2022/05/21 12:41:23;;;;;;;0.00;0.00;;;24.70;66.50;;;;;;5063649;28;20420;-73
2022/05/21 12:43:51;;;;;;;5.85;0.70;;;24.70;66.30;;;;;;5063037;28;20116;-74
2022/05/21 12:46:21;;;;;;;10.23;1.35;;;24.70;66.40;;;;;;5065761;28;20406;-74
2022/05/21 12:48:49;;;;;;;0.00;0.00;;;24.70;66.00;;;;;;5062946;28;20431;-74
2022/05/21 12:51:30;;;;;;;0.00;0.00;;;24.50;67.70;;;;;;5064227;28;20086;-73
2022/05/21 12:53:58;;;;;;;0.03;0.03;;;24.40;68.40;;;;;;5067262;28;20025;-74
2022/05/21 12:56:27;;;;;;;0.38;0.38;;;24.50;81.20;;;;;;5067460;28;20025;-74
2022/05/21 12:59:21;;;;;;;0.00;0.00;;;24.00;99.90;;;;;;5071841;28;20470;-74
2022/05/21 13:01:58;;;;;;;0.00;0.00;;;23.80;99.20;;;;;;5067488;28;20075;-74
2022/05/21 13:04:39;;;;;;;0.95;0.95;;;23.80;99.90;;;;;;5069428;28;20025;-74
2022/05/21 13:07:17;;;;;;;0.00;0.00;;;24.00;99.90;;;;;;5069204;28;20029;-73
2022/05/21 13:10:05;;;;;;;0.10;0.10;;;24.20;96.90;;;;;;5063579;28;20477;-73
2022/05/21 13:12:39;;;;;;;0.00;0.00;;;24.30;86.80;;;;;;5072037;28;20039;-73
2022/05/21 13:15:11;;;;;;;0.10;0.10;;;24.20;88.50;;;;;;5085765;28;20009;-73
2022/05/21 13:17:50;;;;;;;0.15;0.15;;;24.20;84.80;;;;;;5072032;28;20365;-73
2022/05/21 13:20:45;;;;;;;0.00;0.00;;;24.50;81.40;;;;;;5055270;28;20047;-74
2022/05/21 13:23:12;;;;;;;0.00;0.00;;;24.40;78.60;;;;;;5070290;28;20036;-74
2022/05/21 13:25:40;;;;;;;0.00;0.00;;;24.20;78.60;;;;;;5066237;28;20684;-74
2022/05/21 13:28:21;;;;;;;0.00;0.00;;;24.10;82.70;;;;;;5065162;28;20027;-73
2022/05/21 13:30:49;;;;;;;0.00;0.00;;;24.20;80.50;;;;;;5058537;28;20048;-74
2022/05/21 13:33:35;;;;;;;0.00;0.00;;;24.10;82.40;;;;;;5061577;28;20464;-73
2022/05/21 13:36:05;;;;;;;0.00;0.00;;;24.10;89.30;;;;;;5061985;28;20467;-74
2022/05/21 13:38:38;;;;;;;0.00;0.00;;;24.10;84.10;;;;;;5066772;28;20032;-74
2022/05/21 13:41:10;;;;;;;0.00;0.00;;;24.30;80.40;;;;;;5064293;28;20032;-73
2022/05/21 13:43:43;;;;;;;0.00;0.00;;;24.30;79.50;;;;;;5065815;28;20050;-73